createdAt,value
2024-04-19T08:19:38.280Z,95016.00
2024-04-19T08:20:38.359Z,95014.00
2024-04-19T08:21:38.299Z,95012.00
2024-04-19T08:22:38.259Z,95011.00
2024-04-19T08:23:38.267Z,95010.00
2024-04-19T08:24:38.288Z,95008.00
2024-04-19T08:25:38.264Z,95001.00
2024-04-19T08:26:38.275Z,95005.00
2024-04-19T08:27:38.309Z,95003.00
2024-04-19T08:28:38.282Z,95002.00
2024-04-19T08:29:38.291Z,95001.00
2024-04-19T08:30:38.326Z,94998.00
2024-04-19T08:31:38.274Z,94999.00
2024-04-19T08:32:38.326Z,95000.00
2024-04-19T08:33:38.349Z,95005.00
2024-04-19T08:34:38.411Z,95000.00
2024-04-19T08:35:38.504Z,94999.00
2024-04-19T08:36:38.513Z,94999.00
2024-04-19T08:37:38.594Z,95002.00
2024-04-19T08:38:38.626Z,95002.00
2024-04-19T08:39:38.751Z,94999.00
2024-04-19T08:40:41.471Z,94993.00
2024-04-19T08:41:38.738Z,94996.00
2024-04-19T08:42:38.764Z,94999.00
2024-04-19T08:43:38.733Z,94997.00
2024-04-19T08:44:39.433Z,94995.00
2024-04-19T08:45:38.769Z,94993.00
2024-04-19T08:46:38.809Z,94991.00
2024-04-19T08:47:38.838Z,94985.00
2024-04-19T08:48:38.932Z,94983.00
2024-04-19T08:49:38.836Z,94984.00
2024-04-19T08:50:38.815Z,94983.00
2024-04-19T08:51:54.071Z,94981.00
2024-04-19T08:52:59.001Z,94981.00
2024-04-19T08:53:39.859Z,94975.00
2024-04-19T08:54:41.877Z,94972.00
2024-04-19T08:55:38.839Z,94972.00
2024-04-19T08:56:38.817Z,94965.00
2024-04-19T08:57:38.837Z,94967.00
2024-04-19T08:58:38.837Z,94962.00
2024-04-19T08:59:38.835Z,94960.00
2024-04-19T09:00:38.913Z,94962.00
2024-04-19T09:01:38.904Z,94962.00
2024-04-19T09:02:38.837Z,94963.00
2024-04-19T09:03:38.951Z,94963.00
2024-04-19T09:04:38.949Z,94964.00
2024-04-19T09:05:38.896Z,94961.00
2024-04-19T09:06:38.891Z,94959.00
2024-04-19T09:07:38.911Z,94960.00
2024-04-19T09:08:38.892Z,94959.00
2024-04-19T09:09:39.044Z,94960.00
2024-04-19T09:10:38.879Z,94958.00
2024-04-19T09:11:38.907Z,94956.00
2024-04-19T09:12:38.919Z,94954.00
2024-04-19T09:13:38.884Z,94957.00
2024-04-19T09:14:38.935Z,94955.00
2024-04-19T09:15:39.043Z,94954.00
2024-04-19T09:16:39.078Z,94952.00
2024-04-19T09:17:39.150Z,94956.00
2024-04-19T09:18:39.204Z,94943.00
2024-04-19T09:19:39.230Z,94949.00
2024-04-19T09:20:39.323Z,94949.00
2024-04-19T09:21:39.418Z,94948.00
2024-04-19T09:22:39.510Z,94948.00
2024-04-19T09:23:39.591Z,94947.00
2024-04-19T09:24:39.710Z,94943.00
2024-04-19T09:25:39.798Z,94941.00
2024-04-19T09:26:39.878Z,94938.00
2024-04-19T09:27:40.058Z,94934.00
2024-04-19T09:28:40.063Z,94936.00
2024-04-19T09:29:40.139Z,94935.00
2024-04-19T09:30:40.257Z,94930.00
2024-04-19T09:31:40.319Z,94929.00
2024-04-19T09:32:40.523Z,94929.00
2024-04-19T09:33:40.567Z,94924.00
2024-04-19T09:34:40.624Z,94922.00
2024-04-19T09:35:40.702Z,94920.00
2024-04-19T09:36:40.852Z,94918.00
2024-04-19T09:37:40.919Z,94914.00
2024-04-19T09:38:41.025Z,94913.00
2024-04-19T09:39:41.089Z,94912.00
2024-04-19T09:40:41.168Z,94906.00
2024-04-19T09:41:41.293Z,94899.00
2024-04-19T09:42:41.437Z,94904.00
2024-04-19T09:43:41.472Z,94899.00
2024-04-19T09:44:41.618Z,94900.00
2024-04-19T09:45:41.696Z,94896.00
2024-04-19T09:46:41.777Z,94895.00
2024-04-19T09:47:41.873Z,94893.00
2024-04-19T09:48:42.058Z,94891.00
2024-04-19T09:49:42.170Z,94886.00
2024-04-19T09:50:42.218Z,94882.00
2024-04-19T09:51:42.343Z,94880.00
2024-04-19T09:52:42.448Z,94880.00
2024-04-19T09:53:43.475Z,94877.00
2024-04-19T09:54:42.644Z,94873.00
2024-04-19T09:55:42.774Z,94871.00
2024-04-19T09:56:42.747Z,94866.00
2024-04-19T09:57:42.897Z,94863.00
2024-04-19T09:58:42.897Z,94859.00
2024-04-19T09:59:42.994Z,94857.00
2024-04-19T10:00:43.108Z,94854.00
2024-04-19T10:01:43.215Z,94856.00
2024-04-19T10:02:43.234Z,94851.00
2024-04-19T10:03:43.400Z,94848.00
2024-04-19T10:04:43.454Z,94847.00
2024-04-19T10:05:43.528Z,94845.00
2024-04-19T10:06:44.036Z,94842.00
2024-04-19T10:08:26.296Z,94839.00
2024-04-19T10:09:26.365Z,94839.00
2024-04-19T10:10:26.298Z,94838.00
2024-04-19T10:11:26.329Z,94836.00
2024-04-19T10:12:26.313Z,94835.00
2024-04-19T10:13:26.287Z,94836.00
2024-04-19T10:14:26.297Z,94833.00
2024-04-19T10:15:26.331Z,94830.00
2024-04-19T10:16:26.317Z,94823.00
2024-04-19T10:17:26.314Z,94823.00
2024-04-19T10:18:26.390Z,94823.00
2024-04-19T10:19:26.907Z,94819.00
2024-04-19T10:20:26.348Z,94822.00
2024-04-19T10:21:26.450Z,94817.00
2024-04-19T10:22:26.329Z,94816.00
2024-04-19T10:23:26.340Z,94811.00
2024-04-19T10:24:26.406Z,94812.00
2024-04-19T10:25:26.382Z,94813.00
2024-04-19T10:26:26.355Z,94808.00
2024-04-19T10:27:26.371Z,94806.00
2024-04-19T10:28:26.386Z,94808.00
2024-04-19T10:29:26.351Z,94799.00
2024-04-19T10:30:34.514Z,94802.00
2024-04-19T10:31:27.383Z,94803.00
2024-04-19T10:32:26.363Z,94799.00
2024-04-19T10:33:26.382Z,94797.00
2024-04-19T10:34:26.378Z,94790.00
2024-04-19T10:35:26.355Z,94785.00
2024-04-19T10:36:26.383Z,94790.00
2024-04-19T10:37:26.357Z,94785.00
2024-04-19T10:38:26.382Z,94781.00
2024-04-19T10:39:26.470Z,94775.00
2024-04-19T10:40:26.376Z,94767.00
2024-04-19T10:41:26.375Z,94770.00
2024-04-19T10:42:26.393Z,94772.00
2024-04-19T10:43:26.437Z,94765.00
2024-04-19T10:44:26.500Z,94767.00
2024-04-19T10:45:26.649Z,94764.00
2024-04-19T10:46:26.671Z,94765.00
2024-04-19T10:47:26.804Z,94765.00
2024-04-19T10:48:29.008Z,94762.00
2024-04-19T10:49:26.898Z,94761.00
2024-04-19T10:50:26.965Z,94761.00
2024-04-19T10:51:27.049Z,94758.00
2024-04-19T10:52:27.106Z,94757.00
2024-04-19T10:53:27.199Z,94755.00
2024-04-19T10:54:27.302Z,94752.00
2024-04-19T10:55:27.357Z,94751.00
2024-04-19T10:56:27.432Z,94752.00
2024-04-19T10:57:27.547Z,94747.00
2024-04-19T10:58:27.563Z,94743.00
2024-04-19T10:59:27.656Z,94737.00
2024-04-19T11:00:27.891Z,94730.00
2024-04-19T11:01:27.833Z,94725.00
2024-04-19T11:02:28.079Z,94721.00
2024-04-19T11:03:27.968Z,94719.00
2024-04-19T11:04:28.094Z,94713.00
2024-04-19T11:05:28.082Z,94711.00
2024-04-19T11:06:28.185Z,94706.00
2024-04-19T11:07:28.258Z,94703.00
2024-04-19T11:08:28.278Z,94701.00
2024-04-19T11:09:28.411Z,94694.00
2024-04-19T11:10:28.417Z,94693.00
2024-04-19T11:11:28.536Z,94695.00
2024-04-19T11:12:28.623Z,94692.00
2024-04-19T11:13:28.640Z,94685.00
2024-04-19T11:14:28.705Z,94678.00
2024-04-19T11:15:29.063Z,94676.00
2024-04-19T11:16:28.842Z,94673.00
2024-04-19T11:17:29.044Z,94667.00
2024-04-19T11:18:29.147Z,94668.00
2024-04-19T11:19:29.068Z,94669.00
2024-04-19T11:20:29.141Z,94666.00
2024-04-19T11:21:29.210Z,94664.00
2024-04-19T11:22:29.304Z,94657.00
2024-04-19T11:23:29.340Z,94656.00
2024-04-19T11:24:29.433Z,94653.00
2024-04-19T11:25:29.495Z,94660.00
2024-04-19T11:26:29.603Z,94653.00
2024-04-19T11:27:29.640Z,94647.00
2024-04-19T11:28:29.721Z,94647.00
2024-04-19T11:29:29.813Z,94649.00
2024-04-19T11:30:29.923Z,94643.00
2024-04-19T11:31:30.026Z,94646.00
2024-04-19T11:32:30.216Z,94639.00
2024-04-19T11:33:30.123Z,94637.00
2024-04-19T11:34:30.216Z,94634.00
2024-04-19T11:35:30.263Z,94632.00
2024-04-19T11:36:30.356Z,94636.00
2024-04-19T11:37:30.377Z,94632.00
2024-04-19T11:38:30.487Z,94628.00
2024-04-19T11:39:30.505Z,94626.00
2024-04-19T11:40:30.581Z,94624.00
2024-04-19T11:41:30.680Z,94619.00
2024-04-19T11:42:30.708Z,94616.00
2024-04-19T11:43:30.765Z,94615.00
2024-04-19T11:44:30.859Z,94615.00
2024-04-19T11:45:30.938Z,94608.00
2024-04-19T11:46:31.130Z,94609.00
2024-04-19T11:47:31.144Z,94606.00
2024-04-19T11:48:31.249Z,94607.00
2024-04-19T11:49:31.184Z,94610.00
2024-04-19T11:50:31.301Z,94609.00
2024-04-19T11:51:31.402Z,94609.00
2024-04-19T11:52:31.410Z,94606.00
2024-04-19T11:53:31.465Z,94608.00
2024-04-19T11:54:31.554Z,94611.00
2024-04-19T11:55:31.583Z,94609.00
2024-04-19T11:56:31.726Z,94603.00
2024-04-19T11:57:31.783Z,94599.00
2024-04-19T11:58:31.832Z,94599.00
2024-04-19T11:59:31.922Z,94599.00
2024-04-19T12:00:32.042Z,94592.00
2024-04-19T12:01:32.124Z,94589.00
2024-04-19T12:02:32.148Z,94585.00
2024-04-19T12:03:32.414Z,94583.00
2024-04-19T12:04:32.412Z,94576.00
2024-04-19T12:05:32.346Z,94589.00
2024-04-19T12:06:32.424Z,94587.00
2024-04-19T12:07:32.511Z,94580.00
2024-04-19T12:08:32.469Z,94583.00
2024-04-19T12:09:32.512Z,94573.00
2024-04-19T12:10:32.534Z,94567.00
2024-04-19T12:11:32.586Z,94562.00
2024-04-19T12:13:09.749Z,94557.00
2024-04-19T12:16:39.758Z,94547.00
2024-04-19T12:17:30.436Z,94549.00
2024-04-19T12:18:29.350Z,94550.00
2024-04-19T12:19:28.765Z,94549.00
2024-04-19T12:20:41.324Z,94542.00
2024-04-19T12:21:29.668Z,94542.00
2024-04-19T12:22:30.135Z,94543.00
2024-04-19T12:23:29.927Z,94546.00
2024-04-19T12:24:29.968Z,94544.00
2024-04-19T12:25:29.219Z,94540.00
2024-04-19T12:26:29.180Z,94537.00
2024-04-19T12:27:29.043Z,94539.00
2024-04-19T12:28:28.865Z,94537.00
2024-04-19T12:29:28.990Z,94536.00
2024-04-19T12:30:28.933Z,94536.00
2024-04-19T12:31:28.920Z,94531.00
2024-04-19T12:32:29.000Z,94530.00
2024-04-19T12:33:29.053Z,94522.00
2024-04-19T12:34:29.043Z,94520.00
2024-04-19T12:35:29.117Z,94524.00
2024-04-19T12:36:29.158Z,94525.00
2024-04-19T12:37:29.175Z,94523.00
2024-04-19T12:38:30.881Z,94516.00
2024-04-19T12:39:29.262Z,94515.00
2024-04-19T12:40:29.243Z,94520.00
2024-04-19T12:41:29.299Z,94514.00
2024-04-19T12:42:29.337Z,94513.00
2024-04-19T12:43:29.356Z,94513.00
2024-04-19T12:44:29.372Z,94507.00
2024-04-19T12:45:29.490Z,94505.00
2024-04-19T12:46:29.442Z,94504.00
2024-04-19T12:47:29.553Z,94507.00
2024-04-19T12:48:29.734Z,94504.00
2024-04-19T12:49:29.709Z,94502.00
2024-04-19T12:50:29.764Z,94504.00
2024-04-19T12:51:29.927Z,94502.00
2024-04-19T12:52:29.933Z,94503.00
2024-04-19T12:53:30.055Z,94500.00
2024-04-19T12:54:30.105Z,94498.00
2024-04-19T12:55:30.204Z,94500.00
2024-04-19T12:56:30.330Z,94502.00
2024-04-19T12:57:30.372Z,94504.00
2024-04-19T12:58:30.422Z,94503.00
2024-04-19T12:59:30.495Z,94499.00
2024-04-19T13:00:30.989Z,94502.00
2024-04-19T13:01:30.700Z,94503.00
2024-04-19T13:02:30.700Z,94501.00
2024-04-19T13:03:30.803Z,94500.00
2024-04-19T13:04:30.792Z,94502.00
2024-04-19T13:05:30.784Z,94508.00
2024-04-19T13:06:30.886Z,94510.00
2024-04-19T13:07:30.859Z,94507.00
2024-04-19T13:08:30.949Z,94508.00
2024-04-19T13:09:30.923Z,94502.00
2024-04-19T13:10:30.959Z,94498.00
2024-04-19T13:11:31.008Z,94496.00
2024-04-19T13:12:31.035Z,94494.00
2024-04-19T13:13:31.091Z,94497.00
2024-04-19T13:14:31.086Z,94497.00
2024-04-19T13:15:31.191Z,94497.00
2024-04-19T13:16:31.299Z,94493.00
2024-04-19T13:17:31.251Z,94498.00
2024-04-19T13:18:31.347Z,94501.00
2024-04-19T13:19:31.432Z,94500.00
2024-04-19T13:20:31.535Z,94500.00
2024-04-19T13:21:31.636Z,94505.00
2024-04-19T13:22:31.686Z,94510.00
2024-04-19T13:23:31.783Z,94508.00
2024-04-19T13:24:31.900Z,94508.00
2024-04-19T13:25:31.944Z,94513.00
2024-04-19T13:26:32.052Z,94505.00
2024-04-19T13:27:32.151Z,94508.00
2024-04-19T13:28:32.218Z,94513.00
2024-04-19T13:29:32.330Z,94515.00
2024-04-19T13:30:32.449Z,94515.00
2024-04-19T13:31:32.595Z,94511.00
2024-04-19T13:32:32.670Z,94502.00
2024-04-19T13:33:32.670Z,94510.00
2024-04-19T13:34:32.760Z,94514.00
2024-04-19T13:35:32.879Z,94516.00
2024-04-19T13:36:32.969Z,94517.00
2024-04-19T13:37:33.055Z,94513.00
2024-04-19T13:38:33.141Z,94503.00
2024-04-19T13:39:33.275Z,94506.00
2024-04-19T13:40:33.324Z,94508.00
2024-04-19T13:41:33.432Z,94510.00
2024-04-19T13:42:33.547Z,94513.00
2024-04-19T13:43:33.626Z,94509.00
2024-04-19T13:44:34.808Z,94507.00
2024-04-19T13:45:33.851Z,94510.00
2024-04-19T13:46:33.882Z,94510.00
2024-04-19T13:47:34.226Z,94512.00
2024-04-19T13:48:34.296Z,94514.00
2024-04-19T13:49:34.217Z,94516.00
2024-04-19T13:50:34.276Z,94516.00
2024-04-19T13:51:34.404Z,94512.00
2024-04-19T13:52:34.481Z,94510.00
2024-04-19T13:53:34.534Z,94515.00
2024-04-19T13:54:34.670Z,94510.00
2024-04-19T13:55:34.752Z,94510.00
2024-04-19T13:56:34.834Z,94507.00
2024-04-19T13:57:34.951Z,94507.00
2024-04-19T13:58:35.022Z,94506.00
2024-04-19T13:59:35.122Z,94504.00
2024-04-19T14:00:35.275Z,94505.00
2024-04-19T14:01:35.400Z,94501.00
2024-04-19T14:02:35.450Z,94507.00
2024-04-19T14:03:35.530Z,94505.00
2024-04-19T14:04:35.569Z,94506.00
2024-04-19T14:05:35.713Z,94505.00
2024-04-19T14:06:35.798Z,94499.00
2024-04-19T14:07:35.862Z,94504.00
2024-04-19T14:08:35.963Z,94498.00
2024-04-19T14:09:36.077Z,94499.00
2024-04-19T14:10:36.160Z,94499.00
2024-04-19T14:11:36.241Z,94496.00
2024-04-19T14:12:38.437Z,94496.00
2024-04-19T14:13:36.346Z,94496.00
2024-04-19T14:14:36.331Z,94496.00
2024-04-19T14:15:36.326Z,94498.00
2024-04-19T14:16:36.370Z,94499.00
2024-04-19T14:17:36.401Z,94497.00
2024-04-19T14:18:36.390Z,94497.00
2024-04-19T14:19:36.348Z,94496.00
2024-04-19T14:20:36.357Z,94496.00
2024-04-19T14:21:36.403Z,94492.00
2024-04-19T14:22:36.324Z,94496.00
2024-04-19T14:23:36.371Z,94497.00
2024-04-19T14:24:36.390Z,94497.00
2024-04-19T14:25:36.372Z,94498.00
2024-04-19T14:26:36.371Z,94495.00
2024-04-19T14:27:36.353Z,94496.00
2024-04-19T14:28:36.345Z,94494.00
2024-04-19T14:29:36.374Z,94492.00
2024-04-19T14:30:36.365Z,94492.00
2024-04-19T14:31:36.337Z,94491.00
2024-04-19T14:32:36.559Z,94491.00
2024-04-19T14:33:36.378Z,94488.00
2024-04-19T14:34:36.362Z,94489.00
2024-04-19T14:35:36.389Z,94488.00
2024-04-19T14:36:36.446Z,94487.00
2024-04-19T14:37:36.367Z,94486.00
2024-04-19T14:38:36.368Z,94486.00
2024-04-19T14:39:36.479Z,94483.00
2024-04-19T14:40:36.388Z,94479.00
2024-04-19T14:41:36.414Z,94480.00
2024-04-19T14:42:36.382Z,94481.00
2024-04-19T14:43:36.370Z,94478.00
2024-04-19T14:44:36.381Z,94479.00
2024-04-19T14:45:36.391Z,94481.00
2024-04-19T14:46:36.390Z,94475.00
2024-04-19T14:47:36.484Z,94473.00
2024-04-19T14:48:36.634Z,94478.00
2024-04-19T14:49:36.441Z,94477.00
2024-04-19T14:50:36.408Z,94477.00
2024-04-19T14:51:36.604Z,94475.00
2024-04-19T14:52:36.594Z,94477.00
2024-04-19T14:53:36.682Z,94479.00
2024-04-19T14:54:36.783Z,94478.00
2024-04-19T14:55:36.886Z,94482.00
2024-04-19T14:56:36.937Z,94482.00
2024-04-19T14:57:37.027Z,94483.00
2024-04-19T14:58:37.116Z,94485.00
2024-04-19T14:59:37.227Z,94484.00
2024-04-19T15:00:37.367Z,94485.00
2024-04-19T15:01:37.510Z,94483.00
2024-04-19T15:02:37.636Z,94480.00
2024-04-19T15:03:37.658Z,94481.00
2024-04-19T15:04:37.771Z,94487.00
2024-04-19T15:05:37.790Z,94481.00
2024-04-19T15:06:40.397Z,94479.00
2024-04-19T15:07:37.860Z,94482.00
2024-04-19T15:08:37.866Z,94475.00
2024-04-19T15:09:37.904Z,94476.00
2024-04-19T15:10:37.873Z,94478.00
2024-04-19T15:11:37.945Z,94475.00
2024-04-19T15:12:37.937Z,94474.00
2024-04-19T15:13:37.884Z,94475.00
2024-04-19T15:14:37.869Z,94478.00
2024-04-19T15:15:37.925Z,94474.00
2024-04-19T15:16:37.938Z,94476.00
2024-04-19T15:17:38.002Z,94475.00
2024-04-19T15:18:37.929Z,94473.00
2024-04-19T15:19:37.897Z,94475.00
2024-04-19T15:20:37.928Z,94474.00
2024-04-19T15:21:37.953Z,94474.00
2024-04-19T15:22:37.917Z,94471.00
2024-04-19T15:23:37.916Z,94463.00
2024-04-19T15:24:37.929Z,94470.00
2024-04-19T15:25:38.918Z,94468.00
2024-04-19T15:26:37.908Z,94471.00
2024-04-19T15:27:37.962Z,94465.00
2024-04-19T15:28:37.922Z,94472.00
2024-04-19T15:29:37.935Z,94468.00
2024-04-19T15:30:38.046Z,94464.00
2024-04-19T15:31:37.969Z,94463.00
2024-04-19T15:32:37.986Z,94462.00
2024-04-19T15:33:38.104Z,94463.00
2024-04-19T15:34:47.071Z,94459.00
2024-04-19T15:35:38.936Z,94466.00
2024-04-19T15:36:37.991Z,94464.00
2024-04-19T15:37:37.940Z,94460.00
2024-04-19T15:38:37.920Z,94464.00
2024-04-19T15:39:37.947Z,94461.00
2024-04-19T15:40:37.959Z,94461.00
2024-04-19T15:41:44.677Z,94464.00
2024-04-19T15:42:38.990Z,94468.00
2024-04-19T15:43:37.989Z,94469.00
2024-04-19T15:44:37.962Z,94470.00
2024-04-19T15:45:37.981Z,94469.00
2024-04-19T15:46:37.987Z,94471.00
2024-04-19T15:47:38.040Z,94468.00
2024-04-19T15:48:38.023Z,94471.00
2024-04-19T15:49:38.024Z,94468.00
2024-04-19T15:50:38.035Z,94470.00
2024-04-19T15:51:38.011Z,94469.00
2024-04-19T15:52:38.031Z,94473.00
2024-04-19T15:53:38.033Z,94475.00
2024-04-19T15:54:38.144Z,94481.00
2024-04-19T15:55:38.217Z,94474.00
2024-04-19T15:56:38.289Z,94470.00
2024-04-19T15:57:38.418Z,94476.00
2024-04-19T15:58:38.487Z,94473.00
2024-04-19T15:59:38.587Z,94470.00
2024-04-19T16:00:38.753Z,94477.00
2024-04-19T16:01:38.854Z,94468.00
2024-04-19T16:02:38.915Z,94470.00
2024-04-19T16:03:39.093Z,94468.00
2024-04-19T16:04:39.259Z,94467.00
2024-04-19T16:05:39.199Z,94471.00
2024-04-19T16:06:39.314Z,94477.00
2024-04-19T16:07:39.383Z,94472.00
2024-04-19T16:08:39.455Z,94474.00
2024-04-19T16:09:39.582Z,94479.00
2024-04-19T16:10:39.717Z,94478.00
2024-04-19T16:11:39.758Z,94477.00
2024-04-19T16:12:39.864Z,94479.00
2024-04-19T16:13:39.973Z,94480.00
2024-04-19T16:14:40.077Z,94476.00
2024-04-19T16:15:40.221Z,94481.00
2024-04-19T16:16:40.272Z,94479.00
2024-04-19T16:17:40.430Z,94481.00
2024-04-19T16:18:40.458Z,94481.00
2024-04-19T16:19:40.535Z,94480.00
2024-04-19T16:20:40.617Z,94479.00
2024-04-19T16:21:40.743Z,94481.00
2024-04-19T16:22:40.803Z,94480.00
2024-04-19T16:23:40.887Z,94484.00
2024-04-19T16:24:40.986Z,94483.00
2024-04-19T16:25:41.079Z,94485.00
2024-04-19T16:26:41.175Z,94482.00
2024-04-19T16:27:41.324Z,94483.00
2024-04-19T16:28:41.360Z,94483.00
2024-04-19T16:29:41.469Z,94483.00
2024-04-19T16:30:41.622Z,94485.00
2024-04-19T16:31:41.675Z,94486.00
2024-04-19T16:32:41.856Z,94484.00
2024-04-19T16:33:41.992Z,94487.00
2024-04-19T16:34:42.044Z,94487.00
2024-04-19T16:35:51.378Z,94489.00
2024-04-19T16:36:43.100Z,94491.00
2024-04-19T16:37:42.068Z,94491.00
2024-04-19T16:38:42.075Z,94489.00
2024-04-19T16:39:42.131Z,94489.00
2024-04-19T16:40:42.095Z,94494.00
2024-04-19T16:41:42.127Z,94487.00
2024-04-19T16:42:42.186Z,94486.00
2024-04-19T16:43:42.146Z,94486.00
2024-04-19T16:44:42.131Z,94489.00
2024-04-19T16:45:42.166Z,94486.00
2024-04-19T16:46:42.144Z,94485.00
2024-04-19T16:47:42.204Z,94485.00
2024-04-19T16:48:42.165Z,94484.00
2024-04-19T16:49:42.215Z,94483.00
2024-04-19T16:50:42.182Z,94483.00
2024-04-19T16:51:42.204Z,94482.00
2024-04-19T16:52:42.183Z,94480.00
2024-04-19T16:53:42.146Z,94478.00
2024-04-19T16:54:42.230Z,94480.00
2024-04-19T16:55:42.259Z,94472.00
2024-04-19T16:56:42.394Z,94475.00
2024-04-19T16:57:42.498Z,94474.00
2024-04-19T16:58:42.557Z,94472.00
2024-04-19T16:59:42.627Z,94473.00
2024-04-19T17:00:42.866Z,94474.00
2024-04-19T17:01:42.954Z,94473.00
2024-04-19T17:02:42.962Z,94471.00
2024-04-19T17:03:43.115Z,94470.00
2024-04-19T17:04:43.189Z,94473.00
2024-04-19T17:05:43.307Z,94469.00
2024-04-19T17:06:43.439Z,94467.00
2024-04-19T17:07:43.558Z,94465.00
2024-04-19T17:08:43.683Z,94466.00
2024-04-19T17:09:43.726Z,94465.00
2024-04-19T17:10:43.809Z,94465.00
2024-04-19T17:11:43.906Z,94466.00
2024-04-19T17:12:44.084Z,94464.00
2024-04-19T17:13:44.150Z,94465.00
2024-04-19T17:14:44.258Z,94462.00
2024-04-19T17:15:44.417Z,94461.00
2024-04-19T17:16:44.315Z,94462.00
2024-04-19T17:17:44.449Z,94462.00
2024-04-19T17:18:44.563Z,94465.00
2024-04-19T17:19:44.568Z,94463.00
2024-04-19T17:20:44.650Z,94460.00
2024-04-19T17:21:44.787Z,94460.00
2024-04-19T17:22:44.830Z,94461.00
2024-04-19T17:23:44.897Z,94461.00
2024-04-19T17:24:44.994Z,94458.00
2024-04-19T17:25:45.159Z,94459.00
2024-04-19T17:26:45.317Z,94462.00
2024-04-19T17:27:45.561Z,94459.00
2024-04-19T17:28:45.534Z,94459.00
2024-04-19T17:29:45.609Z,94461.00
2024-04-19T17:30:45.698Z,94459.00
2024-04-19T17:31:45.717Z,94457.00
2024-04-19T17:32:45.969Z,94459.00
2024-04-19T17:33:46.042Z,94463.00
2024-04-19T17:34:45.982Z,94461.00
2024-04-19T17:35:46.118Z,94462.00
2024-04-19T17:36:46.254Z,94458.00
2024-04-19T17:37:46.344Z,94456.00
2024-04-19T17:38:46.384Z,94455.00
2024-04-19T17:39:46.456Z,94454.00
2024-04-19T17:40:46.482Z,94455.00
2024-04-19T17:41:46.601Z,94453.00
2024-04-19T17:42:46.785Z,94453.00
2024-04-19T17:43:46.849Z,94453.00
2024-04-19T17:44:46.921Z,94452.00
2024-04-19T17:45:47.131Z,94455.00
2024-04-19T17:46:47.083Z,94454.00
2024-04-19T17:47:47.240Z,94453.00
2024-04-19T17:48:47.253Z,94454.00
2024-04-19T17:49:47.287Z,94453.00
2024-04-19T17:50:47.346Z,94453.00
2024-04-19T17:51:47.422Z,94454.00
2024-04-19T17:52:47.489Z,94452.00
2024-04-19T17:53:47.553Z,94452.00
2024-04-19T17:54:47.640Z,94449.00
2024-04-19T17:55:47.696Z,94447.00
2024-04-19T17:56:47.777Z,94448.00
2024-04-19T17:57:49.737Z,94446.00
2024-04-19T17:58:47.834Z,94447.00
2024-04-19T17:59:47.848Z,94445.00
2024-04-19T18:00:47.938Z,94445.00
2024-04-19T18:01:47.908Z,94440.00
2024-04-19T18:02:47.879Z,94439.00
2024-04-19T18:03:47.927Z,94438.00
2024-04-19T18:04:47.941Z,94438.00
2024-04-19T18:05:47.900Z,94437.00
2024-04-19T18:06:47.904Z,94436.00
2024-04-19T18:07:47.875Z,94433.00
2024-04-19T18:08:47.859Z,94430.00
2024-04-19T18:09:47.881Z,94431.00
2024-04-19T18:10:47.993Z,94430.00
2024-04-19T18:11:47.859Z,94430.00
2024-04-19T18:12:47.930Z,94428.00
2024-04-19T18:13:47.886Z,94426.00
2024-04-19T18:14:47.881Z,94426.00
2024-04-19T18:15:47.937Z,94423.00
2024-04-19T18:16:47.911Z,94423.00
2024-04-19T18:17:50.521Z,94419.00
2024-04-19T18:18:48.057Z,94416.00
2024-04-19T18:19:47.895Z,94414.00
2024-04-19T18:20:47.915Z,94413.00
2024-04-19T18:21:48.009Z,94413.00
2024-04-19T18:22:47.940Z,94412.00
2024-04-19T18:23:47.952Z,94411.00
2024-04-19T18:24:47.984Z,94411.00
2024-04-19T18:25:47.953Z,94410.00
2024-04-19T18:26:47.959Z,94410.00
2024-04-19T18:27:47.983Z,94409.00
2024-04-19T18:28:47.959Z,94407.00
2024-04-19T18:29:47.950Z,94408.00
2024-04-19T18:30:47.990Z,94407.00
2024-04-19T18:31:47.973Z,94410.00
2024-04-19T18:32:47.969Z,94409.00
2024-04-19T18:33:48.104Z,94412.00
2024-04-19T18:34:47.936Z,94413.00
2024-04-19T18:35:47.995Z,94417.00
2024-04-19T18:36:47.981Z,94419.00
2024-04-19T18:37:47.947Z,94418.00
2024-04-19T18:38:47.966Z,94416.00
2024-04-19T18:39:47.994Z,94420.00
2024-04-19T18:40:47.964Z,94421.00
2024-04-19T18:41:47.973Z,94425.00
2024-04-19T18:42:48.010Z,94426.00
2024-04-19T18:43:48.011Z,94431.00
2024-04-19T18:44:48.038Z,94431.00
2024-04-19T18:45:48.099Z,94432.00
2024-04-19T18:46:47.994Z,94429.00
2024-04-19T18:47:48.074Z,94429.00
2024-04-19T18:48:48.203Z,94430.00
2024-04-19T18:49:48.032Z,94430.00
2024-04-19T18:50:48.028Z,94428.00
2024-04-19T18:51:48.064Z,94430.00
2024-04-19T18:52:48.024Z,94432.00
2024-04-19T18:53:48.038Z,94430.00
2024-04-19T18:54:48.118Z,94431.00
2024-04-19T18:55:48.016Z,94434.00
2024-04-19T18:56:48.076Z,94435.00
2024-04-19T18:57:48.052Z,94435.00
2024-04-19T18:58:48.099Z,94434.00
2024-04-19T18:59:48.054Z,94434.00
2024-04-19T19:00:49.082Z,94432.00
2024-04-19T19:01:48.130Z,94431.00
2024-04-19T19:02:48.242Z,94434.00
2024-04-19T19:03:48.508Z,94433.00
2024-04-19T19:04:48.342Z,94432.00
2024-04-19T19:05:48.441Z,94433.00
2024-04-19T19:06:48.540Z,94433.00
2024-04-19T19:07:48.576Z,94434.00
2024-04-19T19:08:48.683Z,94436.00
2024-04-19T19:09:48.816Z,94438.00
2024-04-19T19:10:48.958Z,94437.00
2024-04-19T19:11:48.939Z,94435.00
2024-04-19T19:12:49.104Z,94438.00
2024-04-19T19:13:49.101Z,94436.00
2024-04-19T19:14:49.215Z,94434.00
2024-04-19T19:15:49.358Z,94431.00
2024-04-19T19:16:49.384Z,94430.00
2024-04-19T19:17:49.508Z,94433.00
2024-04-19T19:18:49.649Z,94433.00
2024-04-19T19:19:49.624Z,94434.00
2024-04-19T19:20:49.755Z,94432.00
2024-04-19T19:21:49.850Z,94432.00
2024-04-19T19:22:49.890Z,94430.00
2024-04-19T19:23:50.013Z,94429.00
2024-04-19T19:24:50.183Z,94429.00
2024-04-19T19:25:50.178Z,94430.00
2024-04-19T19:26:50.269Z,94434.00
2024-04-19T19:27:50.412Z,94437.00
2024-04-19T19:28:50.461Z,94437.00
2024-04-19T19:29:50.527Z,94432.00
2024-04-19T19:30:50.672Z,94431.00
2024-04-19T19:31:50.788Z,94432.00
2024-04-19T19:32:50.915Z,94433.00
2024-04-19T19:33:50.949Z,94432.00
2024-04-19T19:34:51.046Z,94433.00
2024-04-19T19:35:51.114Z,94435.00
2024-04-19T19:36:51.379Z,94433.00
2024-04-19T19:37:51.338Z,94432.00
2024-04-19T19:38:51.408Z,94432.00
2024-04-19T19:39:51.546Z,94432.00
2024-04-19T19:40:51.636Z,94432.00
2024-04-19T19:41:51.717Z,94432.00
2024-04-19T19:42:51.843Z,94436.00
2024-04-19T19:43:51.945Z,94436.00
2024-04-19T19:44:52.002Z,94435.00
2024-04-19T19:45:52.092Z,94436.00
2024-04-19T19:46:52.216Z,94434.00
2024-04-19T19:47:52.461Z,94433.00
2024-04-19T19:48:52.414Z,94432.00
2024-04-19T19:49:52.515Z,94433.00
2024-04-19T19:50:52.607Z,94436.00
2024-04-19T19:51:52.732Z,94439.00
2024-04-19T19:52:52.808Z,94438.00
2024-04-19T19:53:52.908Z,94443.00
2024-04-19T19:54:53.012Z,94443.00
2024-04-19T19:55:53.077Z,94441.00
2024-04-19T19:56:53.187Z,94437.00
2024-04-19T19:57:53.304Z,94435.00
2024-04-19T19:58:53.425Z,94432.00
2024-04-19T19:59:53.525Z,94433.00
2024-04-19T20:00:53.705Z,94431.00
2024-04-19T20:01:53.825Z,94433.00
2024-04-19T20:02:53.814Z,94437.00
2024-04-19T20:03:54.083Z,94435.00
2024-04-19T20:04:54.005Z,94434.00
2024-04-19T20:05:54.111Z,94434.00
2024-04-19T20:06:54.266Z,94435.00
2024-04-19T20:07:54.355Z,94434.00